Time;durP1;ratioP1;P1;durP2;ratioP2;P2;SDS_P1;SDS_P2;PMS_P1;PMS_P2;Temp;Humidity;BMP_temperature;BMP_pressure;BME280_temperature;BME280_humidity;BME280_pressure;Samples;Min_cycle;Max_cycle;Signal;HPM_P1;HPM_P2
2021/09/14 00:01:30;;;;;;;6.35;5.80;;;16.50;99.90;;;;;;5040499;28;20049;-83
2021/09/14 00:03:56;;;;;;;5.68;5.18;;;16.50;99.90;;;;;;5040044;28;20032;-82
2021/09/14 00:06:21;;;;;;;6.25;5.75;;;16.50;99.90;;;;;;5039872;28;20467;-83
2021/09/14 00:08:47;;;;;;;5.93;5.43;;;16.50;99.90;;;;;;5014040;28;20025;-84
2021/09/14 00:11:13;;;;;;;6.68;6.07;;;16.50;99.90;;;;;;5025949;28;20038;-82
2021/09/14 00:13:39;;;;;;;6.25;5.65;;;16.40;99.90;;;;;;5051175;28;20033;-80
2021/09/14 00:16:04;;;;;;;5.72;5.22;;;16.40;99.90;;;;;;5036628;28;20112;-83
2021/09/14 00:18:30;;;;;;;5.82;5.32;;;16.40;99.90;;;;;;5022089;28;20029;-82
2021/09/14 00:20:56;;;;;;;5.57;5.07;;;16.30;99.90;;;;;;5031448;28;20057;-79
2021/09/14 00:23:22;;;;;;;5.53;4.93;;;16.30;99.90;;;;;;5028917;28;20030;-83
2021/09/14 00:25:50;;;;;;;6.53;5.93;;;16.30;99.90;;;;;;5020266;28;20026;-84
2021/09/14 00:28:16;;;;;;;6.07;5.57;;;16.30;99.90;;;;;;5024732;28;20140;-82
2021/09/14 00:30:42;;;;;;;7.05;6.38;;;16.30;99.90;;;;;;5003558;28;20057;-83
2021/09/14 00:33:08;;;;;;;6.85;6.25;;;16.30;99.90;;;;;;5019796;28;20045;-83
2021/09/14 00:35:33;;;;;;;5.60;5.10;;;16.30;99.90;;;;;;5001497;28;20029;-84
2021/09/14 00:37:59;;;;;;;6.75;5.65;;;16.30;99.90;;;;;;5008073;28;20021;-83
2021/09/14 00:40:25;;;;;;;5.78;5.28;;;16.30;99.90;;;;;;5030915;28;20029;-82
2021/09/14 00:42:51;;;;;;;5.88;5.38;;;16.30;99.90;;;;;;5039718;28;20022;-80
2021/09/14 00:45:16;;;;;;;5.40;4.90;;;16.20;99.90;;;;;;5032969;28;20032;-84
2021/09/14 00:47:42;;;;;;;5.80;5.30;;;16.20;99.90;;;;;;5023210;28;20076;-83
2021/09/14 00:50:08;;;;;;;5.95;5.45;;;16.20;99.90;;;;;;5037483;28;20044;-84
2021/09/14 00:52:35;;;;;;;5.40;4.90;;;16.20;99.90;;;;;;5038793;28;20513;-84
2021/09/14 00:55:01;;;;;;;4.97;4.50;;;16.20;99.90;;;;;;5020707;28;20649;-84
2021/09/14 00:57:27;;;;;;;5.80;5.30;;;16.10;99.90;;;;;;5021544;28;20025;-83
2021/09/14 00:59:52;;;;;;;4.55;4.15;;;16.10;99.90;;;;;;5037830;28;20025;-83
2021/09/14 01:02:18;;;;;;;5.50;5.00;;;16.20;99.90;;;;;;5020767;28;20025;-83
2021/09/14 01:04:44;;;;;;;4.80;4.40;;;16.10;99.90;;;;;;5038829;28;20040;-84
2021/09/14 01:07:10;;;;;;;5.20;4.70;;;16.10;99.90;;;;;;5040619;28;20047;-82
2021/09/14 01:09:37;;;;;;;4.65;4.25;;;16.10;99.90;;;;;;5015532;28;20040;-82
2021/09/14 01:12:03;;;;;;;4.30;3.95;;;16.00;99.90;;;;;;5006584;28;20022;-81
2021/09/14 01:14:29;;;;;;;5.10;4.68;;;16.00;99.90;;;;;;5029358;28;20079;-83
2021/09/14 01:16:55;;;;;;;4.40;4.07;;;16.00;99.90;;;;;;5011355;28;20021;-84
2021/09/14 01:19:21;;;;;;;5.10;4.60;;;16.00;99.90;;;;;;5033528;28;20038;-82
2021/09/14 01:21:47;;;;;;;5.05;4.63;;;16.00;99.90;;;;;;5017877;28;20034;-84
2021/09/14 01:24:13;;;;;;;4.80;4.20;;;16.00;99.90;;;;;;5018298;28;20033;-83
2021/09/14 01:26:39;;;;;;;5.97;5.43;;;15.90;99.90;;;;;;5018114;28;20014;-83
2021/09/14 01:29:09;;;;;;;5.20;4.80;;;15.90;99.90;;;;;;5017422;28;20030;-83
2021/09/14 01:31:36;;;;;;;6.95;5.00;;;15.90;99.90;;;;;;5038480;28;20396;-81
2021/09/14 01:34:02;;;;;;;6.13;5.63;;;15.90;99.90;;;;;;5038819;28;20041;-85
2021/09/14 01:36:28;;;;;;;5.00;4.60;;;15.80;99.90;;;;;;5021296;28;20021;-85
2021/09/14 01:38:54;;;;;;;5.13;4.72;;;15.90;99.90;;;;;;5048881;28;20059;-83
2021/09/14 01:41:20;;;;;;;5.05;4.65;;;15.80;99.90;;;;;;5055458;28;20025;-80
2021/09/14 01:43:46;;;;;;;4.78;4.38;;;15.80;99.90;;;;;;5054258;28;20045;-82
2021/09/14 01:46:12;;;;;;;5.97;5.40;;;15.80;99.90;;;;;;5046982;28;20024;-80
2021/09/14 01:48:38;;;;;;;5.28;4.78;;;15.80;99.90;;;;;;5025508;28;20147;-82
2021/09/14 01:51:05;;;;;;;5.57;5.07;;;15.80;99.90;;;;;;5032223;28;20033;-84
2021/09/14 01:53:31;;;;;;;5.00;4.60;;;15.80;99.90;;;;;;5040573;28;20032;-84
2021/09/14 01:56:02;;;;;;;5.85;5.25;;;15.70;99.90;;;;;;5038953;28;20049;-82
2021/09/14 01:58:28;;;;;;;5.53;5.03;;;15.70;99.90;;;;;;5025338;28;20033;-83
2021/09/14 02:01:09;;;;;;;5.72;5.22;;;15.70;99.90;;;;;;5018885;28;20431;-83
2021/09/14 03:00:01;;;;;;;4.65;4.25;;;15.40;99.90;;;;;;5028455;28;20127;-83
2021/09/14 03:02:27;;;;;;;5.00;4.60;;;15.40;99.90;;;;;;5011934;28;20474;-84
2021/09/14 03:04:52;;;;;;;5.07;4.57;;;15.40;99.90;;;;;;5041604;28;20443;-84
2021/09/14 03:07:18;;;;;;;4.60;4.20;;;15.40;99.90;;;;;;5036267;28;20043;-78
2021/09/14 03:09:44;;;;;;;5.03;4.63;;;15.40;99.90;;;;;;5041385;28;20040;-82
2021/09/14 03:12:10;;;;;;;5.40;4.90;;;15.50;99.90;;;;;;5019060;28;20470;-83
2021/09/14 03:14:35;;;;;;;5.10;4.60;;;15.40;99.90;;;;;;5036840;28;20025;-83
2021/09/14 03:17:01;;;;;;;4.35;4.00;;;15.40;99.90;;;;;;5028654;28;20017;-82
2021/09/14 03:19:27;;;;;;;5.18;4.68;;;15.40;99.90;;;;;;5018538;28;20034;-82
2021/09/14 03:21:52;;;;;;;4.90;4.50;;;15.40;99.90;;;;;;5018742;28;20025;-84
2021/09/14 03:24:18;;;;;;;5.07;4.68;;;15.40;99.90;;;;;;5017854;28;20088;-83
2021/09/14 03:26:44;;;;;;;4.88;4.47;;;15.40;99.90;;;;;;5019240;28;20105;-82
2021/09/14 03:29:09;;;;;;;4.40;4.00;;;15.30;99.90;;;;;;5018818;28;20025;-83
2021/09/14 03:31:36;;;;;;;4.70;4.30;;;15.30;99.90;;;;;;5037091;28;20035;-85
2021/09/14 03:34:02;;;;;;;5.55;5.03;;;15.30;99.90;;;;;;5042216;28;20032;-82
2021/09/14 03:36:28;;;;;;;5.57;5.07;;;15.30;99.90;;;;;;5041856;28;20021;-84
2021/09/14 03:38:53;;;;;;;6.43;5.00;;;15.30;99.90;;;;;;5033792;28;20045;-83
2021/09/14 03:41:19;;;;;;;5.05;4.65;;;15.20;99.90;;;;;;5045427;28;20032;-79
2021/09/14 03:43:45;;;;;;;5.47;4.97;;;15.20;99.90;;;;;;5035016;28;20045;-81
2021/09/14 03:46:24;;;;;;;4.72;4.25;;;15.20;99.90;;;;;;5042316;28;20060;-85
2021/09/14 03:48:50;;;;;;;6.10;5.50;;;15.20;99.90;;;;;;5024073;28;20044;-87
2021/09/14 03:58:32;;;;;;;7.95;6.15;;;15.10;99.90;;;;;;5017360;28;20104;-86
2021/09/14 04:00:57;;;;;;;9.75;6.18;;;15.10;99.90;;;;;;4983197;28;20073;-86
2021/09/14 04:03:35;;;;;;;6.95;5.88;;;15.10;99.90;;;;;;4998537;28;20041;-87
2021/09/14 04:11:15;;;;;;;6.53;5.40;;;15.00;99.90;;;;;;5019130;28;20050;-87
2021/09/14 04:13:47;;;;;;;5.93;5.32;;;15.00;99.90;;;;;;5017950;28;20025;-86
2021/09/14 04:16:12;;;;;;;5.25;4.75;;;15.00;99.90;;;;;;5006942;28;20060;-85
2021/09/14 04:18:38;;;;;;;5.78;5.28;;;15.00;99.90;;;;;;5025274;28;20038;-82
2021/09/14 04:21:05;;;;;;;5.20;4.80;;;15.00;99.90;;;;;;5039511;28;20033;-84
2021/09/14 04:23:31;;;;;;;5.28;4.75;;;15.00;99.90;;;;;;5040206;28;20018;-84
2021/09/14 04:25:56;;;;;;;5.13;4.63;;;15.00;99.90;;;;;;5039745;28;20029;-85
2021/09/14 04:28:22;;;;;;;5.80;5.28;;;15.00;99.90;;;;;;5039189;28;20029;-84
2021/09/14 04:30:48;;;;;;;5.43;4.93;;;14.90;99.90;;;;;;5043656;28;20018;-84
2021/09/14 04:33:13;;;;;;;4.93;4.53;;;14.90;99.90;;;;;;5052188;28;20025;-82
2021/09/14 04:35:39;;;;;;;4.70;4.30;;;14.90;99.90;;;;;;5035362;28;20093;-86
2021/09/14 04:38:05;;;;;;;5.72;5.20;;;14.90;99.90;;;;;;5054981;28;20006;-85
2021/09/14 04:40:31;;;;;;;5.30;4.80;;;14.90;99.90;;;;;;5024780;28;20038;-85
2021/09/14 04:42:57;;;;;;;5.03;4.57;;;14.90;99.90;;;;;;5018041;28;20030;-85
2021/09/14 04:45:23;;;;;;;4.82;4.43;;;14.90;99.90;;;;;;5049699;28;20123;-84
2021/09/14 04:47:49;;;;;;;4.57;4.18;;;14.90;99.90;;;;;;5026938;28;20033;-85
2021/09/14 04:50:15;;;;;;;4.80;4.40;;;14.80;99.90;;;;;;5020031;28;20025;-84
2021/09/14 04:52:41;;;;;;;5.30;4.80;;;14.90;99.90;;;;;;5036906;28;20079;-85
2021/09/14 04:55:07;;;;;;;4.82;4.32;;;14.90;99.90;;;;;;5018691;28;20053;-85
2021/09/14 04:57:33;;;;;;;5.55;5.05;;;14.90;99.90;;;;;;5030034;28;20029;-84
2021/09/14 04:59:59;;;;;;;5.32;4.82;;;14.90;99.90;;;;;;5050977;28;20018;-84
2021/09/14 05:02:25;;;;;;;5.63;5.13;;;14.90;99.90;;;;;;5020144;28;20028;-84
2021/09/14 05:04:51;;;;;;;4.65;4.25;;;14.90;99.90;;;;;;5019300;28;20013;-85
2021/09/14 05:07:16;;;;;;;5.40;4.90;;;14.90;99.90;;;;;;5014378;28;20112;-84
2021/09/14 05:09:42;;;;;;;5.80;5.25;;;14.90;99.90;;;;;;4999516;28;20034;-84
2021/09/14 05:12:09;;;;;;;5.28;4.78;;;15.00;99.90;;;;;;5016187;28;20435;-85
2021/09/14 05:14:34;;;;;;;4.72;4.32;;;15.00;99.90;;;;;;4997921;28;20026;-85
2021/09/14 05:17:01;;;;;;;4.35;3.95;;;15.00;99.90;;;;;;5035449;28;20056;-85
2021/09/14 05:19:34;;;;;;;4.47;4.07;;;15.10;99.90;;;;;;5038626;28;20120;-84
2021/09/14 05:22:01;;;;;;;5.25;4.75;;;15.20;99.90;;;;;;5038722;28;20152;-84
2021/09/14 05:24:28;;;;;;;5.13;4.63;;;15.30;99.90;;;;;;5039720;28;20021;-85
2021/09/14 05:26:55;;;;;;;4.32;3.92;;;15.30;99.90;;;;;;5023778;28;20037;-85
2021/09/14 05:29:21;;;;;;;4.40;4.03;;;15.40;99.90;;;;;;5039141;28;20032;-85
2021/09/14 05:31:47;;;;;;;4.80;4.40;;;15.40;99.90;;;;;;5023396;28;20030;-83
2021/09/14 05:34:13;;;;;;;4.90;4.35;;;15.50;99.90;;;;;;5031329;28;20021;-85
2021/09/14 05:36:43;;;;;;;4.00;3.70;;;15.50;99.90;;;;;;5021693;28;20029;-86
2021/09/14 05:39:09;;;;;;;5.00;4.50;;;15.60;99.90;;;;;;5047286;28;20029;-81
2021/09/14 05:41:35;;;;;;;4.75;4.35;;;15.60;99.90;;;;;;5002719;28;20076;-83
2021/09/14 05:44:03;;;;;;;4.72;4.20;;;15.70;99.90;;;;;;5003925;28;20027;-83
2021/09/14 05:46:37;;;;;;;4.88;4.20;;;15.70;99.90;;;;;;5027895;28;20026;-82
2021/09/14 05:49:12;;;;;;;4.15;3.83;;;15.70;99.90;;;;;;5025075;28;20034;-84
2021/09/14 05:51:38;;;;;;;4.40;4.00;;;15.80;99.90;;;;;;5008121;28;20049;-83
2021/09/14 05:54:04;;;;;;;4.22;3.83;;;15.90;99.90;;;;;;5010248;28;20034;-82
2021/09/14 05:56:32;;;;;;;5.20;4.10;;;15.90;99.90;;;;;;5036202;28;20045;-84
2021/09/14 05:59:00;;;;;;;4.50;4.10;;;16.00;99.90;;;;;;5022204;28;20104;-78
2021/09/14 06:01:27;;;;;;;4.65;4.25;;;16.00;99.90;;;;;;5040928;28;20075;-81
2021/09/14 06:03:53;;;;;;;5.40;4.90;;;16.10;99.90;;;;;;5019496;28;20041;-79
2021/09/14 06:06:19;;;;;;;5.85;4.75;;;16.10;99.90;;;;;;5037289;28;20025;-80
2021/09/14 06:08:44;;;;;;;4.68;4.28;;;16.20;99.90;;;;;;5032069;28;20445;-77
2021/09/14 06:11:10;;;;;;;5.00;4.13;;;16.30;99.90;;;;;;5015767;28;20029;-80
2021/09/14 06:13:36;;;;;;;4.80;4.40;;;16.40;99.90;;;;;;5017525;28;20032;-80
2021/09/14 06:16:03;;;;;;;5.70;4.32;;;16.50;99.90;;;;;;5016426;28;20053;-79
2021/09/14 06:18:29;;;;;;;5.28;4.78;;;16.50;99.90;;;;;;5015573;28;20034;-79
2021/09/14 06:20:55;;;;;;;4.82;4.43;;;16.60;99.90;;;;;;5004646;28;20090;-79
2021/09/14 06:23:21;;;;;;;5.57;5.00;;;16.60;99.90;;;;;;5026819;28;20501;-79
2021/09/14 06:25:47;;;;;;;7.60;5.50;;;16.70;99.90;;;;;;5004797;28;20045;-79
2021/09/14 06:28:13;;;;;;;6.38;5.30;;;16.70;99.90;;;;;;5026050;28;20026;-82
2021/09/14 06:30:39;;;;;;;6.55;4.95;;;16.80;99.90;;;;;;5039550;28;20021;-77
2021/09/14 06:33:08;;;;;;;5.63;5.10;;;16.80;99.90;;;;;;5037253;28;20028;-78
2021/09/14 06:35:35;;;;;;;4.78;4.28;;;16.90;99.90;;;;;;5038998;28;20100;-80
2021/09/14 06:38:01;;;;;;;5.05;4.43;;;17.00;99.90;;;;;;5033937;28;20022;-79
2021/09/14 06:40:27;;;;;;;4.93;4.43;;;17.10;99.90;;;;;;5024576;28;20545;-79
2021/09/14 06:42:53;;;;;;;4.88;4.22;;;17.20;99.90;;;;;;5000410;28;20026;-79
2021/09/14 06:45:19;;;;;;;3.95;3.58;;;17.30;99.90;;;;;;5028429;28;20022;-80
2021/09/14 06:47:44;;;;;;;4.10;3.70;;;17.40;99.90;;;;;;5032904;28;20033;-80
2021/09/14 06:50:10;;;;;;;4.35;3.95;;;17.50;99.90;;;;;;5001042;28;20038;-81
2021/09/14 06:52:39;;;;;;;4.38;3.97;;;17.60;99.90;;;;;;5022458;28;20025;-81
2021/09/14 06:55:07;;;;;;;4.28;3.88;;;17.70;99.90;;;;;;5032278;28;20034;-80
2021/09/14 06:57:33;;;;;;;4.40;4.00;;;17.80;99.90;;;;;;5032525;28;20061;-79
2021/09/14 06:59:59;;;;;;;5.93;4.38;;;17.90;99.90;;;;;;5030665;28;20026;-78
2021/09/14 07:02:25;;;;;;;5.50;5.00;;;17.90;99.90;;;;;;5035272;28;20017;-77
2021/09/14 07:04:52;;;;;;;4.78;4.35;;;18.00;99.90;;;;;;5015429;28;20436;-79
2021/09/14 07:07:17;;;;;;;3.80;3.50;;;18.10;99.90;;;;;;5032286;28;20078;-82
2021/09/14 07:09:46;;;;;;;4.72;4.25;;;18.20;99.90;;;;;;5032627;28;20060;-80
2021/09/14 07:12:12;;;;;;;5.05;4.55;;;18.30;99.90;;;;;;5037049;28;20060;-80
2021/09/14 07:14:38;;;;;;;4.28;3.80;;;18.40;99.90;;;;;;5035101;28;20026;-82
2021/09/14 07:17:04;;;;;;;4.70;4.30;;;18.60;99.90;;;;;;5034118;28;20093;-82
2021/09/14 07:19:29;;;;;;;4.80;4.40;;;18.70;99.60;;;;;;5039914;28;20030;-81
2021/09/14 07:21:55;;;;;;;4.60;4.20;;;18.80;99.20;;;;;;5042204;28;20022;-78
2021/09/14 07:24:21;;;;;;;3.85;3.42;;;18.90;98.80;;;;;;5042178;28;20507;-79
2021/09/14 07:26:47;;;;;;;4.20;3.80;;;19.10;98.30;;;;;;5041990;28;20396;-82
2021/09/14 07:29:13;;;;;;;5.07;4.55;;;19.20;97.70;;;;;;5021073;28;20049;-79
2021/09/14 07:31:41;;;;;;;11.05;4.97;;;19.40;97.10;;;;;;5038124;28;20029;-78
2021/09/14 07:34:06;;;;;;;5.65;4.90;;;19.40;96.80;;;;;;5040799;28;20594;-79
2021/09/14 07:36:32;;;;;;;6.63;4.63;;;19.60;96.60;;;;;;5040514;28;20044;-78
2021/09/14 07:38:58;;;;;;;5.07;4.47;;;19.70;96.10;;;;;;5015335;28;20040;-80
2021/09/14 07:41:24;;;;;;;4.72;4.30;;;19.90;95.60;;;;;;5036667;28;20029;-80
2021/09/14 07:43:49;;;;;;;5.57;4.47;;;20.10;95.00;;;;;;5043365;28;20044;-81
2021/09/14 07:46:15;;;;;;;7.68;4.88;;;20.30;94.40;;;;;;5022129;28;20092;-81
2021/09/14 07:48:41;;;;;;;4.78;4.13;;;20.40;93.80;;;;;;5021491;28;20098;-79
2021/09/14 07:51:07;;;;;;;4.63;4.22;;;20.50;93.20;;;;;;5032081;28;20025;-81
2021/09/14 07:53:32;;;;;;;5.68;4.50;;;20.60;93.10;;;;;;5046452;28;20033;-80
2021/09/14 07:55:58;;;;;;;5.22;4.50;;;20.80;92.70;;;;;;5051313;28;20025;-82
2021/09/14 07:58:24;;;;;;;5.05;4.15;;;21.00;92.10;;;;;;5055130;28;20026;-81
2021/09/14 08:00:50;;;;;;;4.50;4.10;;;21.20;91.50;;;;;;5035486;28;20034;-81
2021/09/14 08:03:15;;;;;;;5.05;4.55;;;21.40;91.00;;;;;;5037199;28;20044;-80
2021/09/14 08:05:42;;;;;;;5.85;4.78;;;21.70;90.40;;;;;;5054568;28;20097;-81
2021/09/14 08:08:08;;;;;;;4.97;4.18;;;21.90;89.50;;;;;;5053595;28;20036;-83
2021/09/14 08:10:35;;;;;;;4.18;3.72;;;22.20;88.50;;;;;;5047478;28;20101;-85
2021/09/14 08:13:01;;;;;;;5.00;3.97;;;22.40;87.00;;;;;;5051638;28;20112;-83
2021/09/14 08:15:27;;;;;;;5.85;4.47;;;22.40;86.30;;;;;;5044459;28;20026;-82
2021/09/14 08:17:53;;;;;;;4.40;4.00;;;22.40;85.70;;;;;;5027830;28;20083;-81
2021/09/14 08:20:26;;;;;;;4.57;4.18;;;22.40;85.60;;;;;;5032630;28;20018;-80
2021/09/14 08:22:52;;;;;;;6.30;4.03;;;22.60;84.70;;;;;;5031237;28;20029;-80
2021/09/14 08:25:18;;;;;;;4.72;4.32;;;22.70;84.50;;;;;;5048583;28;20021;-79
2021/09/14 08:27:43;;;;;;;4.07;3.67;;;22.90;83.20;;;;;;5032138;28;20029;-79
2021/09/14 08:30:15;;;;;;;4.95;4.45;;;23.10;81.60;;;;;;5036900;28;20021;-80
2021/09/14 08:32:41;;;;;;;4.55;4.05;;;23.10;80.40;;;;;;5036996;28;20009;-81
2021/09/14 08:35:07;;;;;;;4.30;3.97;;;23.20;80.70;;;;;;5053928;28;20028;-79
2021/09/14 08:37:33;;;;;;;5.32;3.95;;;23.50;80.00;;;;;;5050018;28;20010;-78
2021/09/14 08:39:59;;;;;;;4.15;3.78;;;23.80;78.70;;;;;;5046762;28;20032;-80
2021/09/14 08:42:32;;;;;;;5.35;4.43;;;24.10;77.10;;;;;;5047374;28;20109;-79
2021/09/14 08:44:58;;;;;;;4.70;4.18;;;24.30;75.60;;;;;;5044544;28;20065;-79
2021/09/14 08:47:25;;;;;;;5.45;3.80;;;24.30;74.30;;;;;;5035931;28;20017;-80
2021/09/14 08:49:51;;;;;;;6.22;4.53;;;24.30;74.40;;;;;;5026392;28;20101;-80
2021/09/14 08:52:17;;;;;;;4.07;3.67;;;24.50;73.60;;;;;;5047640;28;20020;-83
2021/09/14 08:54:43;;;;;;;4.40;4.00;;;24.80;72.80;;;;;;5036676;28;20033;-81
2021/09/14 08:57:09;;;;;;;5.15;4.57;;;25.00;71.60;;;;;;5045119;28;20009;-82
2021/09/14 08:59:35;;;;;;;3.90;3.60;;;25.00;71.10;;;;;;5030105;28;20116;-80
2021/09/14 09:02:04;;;;;;;4.32;3.92;;;25.00;70.60;;;;;;5051710;28;20029;-82
2021/09/14 09:04:30;;;;;;;4.97;4.00;;;25.10;70.10;;;;;;5051154;28;20028;-82
2021/09/14 09:06:55;;;;;;;6.00;4.30;;;25.00;70.20;;;;;;5030911;28;20025;-81
2021/09/14 09:09:23;;;;;;;5.50;4.03;;;25.00;70.20;;;;;;5041370;28;20041;-80
2021/09/14 09:11:53;;;;;;;4.28;3.88;;;24.90;69.90;;;;;;5006565;28;20030;-80
2021/09/14 09:14:18;;;;;;;5.30;4.80;;;25.10;69.90;;;;;;5021105;28;20071;-81
2021/09/14 09:16:44;;;;;;;5.45;4.45;;;25.20;68.90;;;;;;5039671;28;20030;-79
2021/09/14 09:19:10;;;;;;;4.35;3.95;;;25.30;67.50;;;;;;5027021;28;20079;-82
2021/09/14 09:21:38;;;;;;;4.20;3.80;;;25.30;67.60;;;;;;5043978;28;20022;-81
2021/09/14 09:24:08;;;;;;;4.60;4.22;;;25.30;68.20;;;;;;5044145;28;20097;-79
2021/09/14 09:26:36;;;;;;;4.85;3.95;;;25.60;68.10;;;;;;5043070;28;20033;-79
2021/09/14 09:29:05;;;;;;;4.43;4.03;;;26.10;67.00;;;;;;5044617;28;20022;-80
2021/09/14 09:31:37;;;;;;;5.20;4.43;;;26.40;65.40;;;;;;5046289;28;20025;-81
2021/09/14 09:34:09;;;;;;;;;;;26.60;64.30;;;;;;5025102;28;20030;-82
2021/09/14 09:36:39;;;;;;;6.18;4.82;;;26.90;62.80;;;;;;5042226;28;19909;-81
2021/09/14 09:39:09;;;;;;;4.10;3.80;;;27.20;62.10;;;;;;5017748;28;20140;-81
2021/09/14 09:41:38;;;;;;;4.85;4.00;;;27.40;61.70;;;;;;5042061;28;20172;-81
2021/09/14 09:44:14;;;;;;;5.43;3.75;;;27.30;61.60;;;;;;5038943;28;20018;-81
2021/09/14 09:46:40;;;;;;;4.63;4.07;;;27.10;61.70;;;;;;5040512;28;20095;-80
2021/09/14 09:49:09;;;;;;;4.88;3.63;;;26.80;62.80;;;;;;5041087;28;20057;-81
2021/09/14 09:51:37;;;;;;;4.18;3.80;;;26.80;62.80;;;;;;5043458;28;20025;-82
2021/09/14 09:54:04;;;;;;;5.07;4.68;;;26.90;62.40;;;;;;5038305;28;20588;-81
2021/09/14 09:56:31;;;;;;;5.85;4.25;;;27.00;61.90;;;;;;5012220;28;20049;-80
2021/09/14 09:59:03;;;;;;;4.47;4.13;;;26.90;62.30;;;;;;5032497;28;20038;-82
2021/09/14 10:01:38;;;;;;;4.35;3.97;;;26.80;63.30;;;;;;5055799;28;20024;-84
2021/09/14 10:04:16;;;;;;;5.70;4.32;;;26.90;63.30;;;;;;5028786;28;20145;-82
2021/09/14 10:06:46;;;;;;;4.40;4.00;;;26.90;62.30;;;;;;5024484;28;20049;-82
2021/09/14 10:09:12;;;;;;;4.30;4.00;;;26.90;62.30;;;;;;5033612;28;20030;-81
2021/09/14 10:11:38;;;;;;;6.13;4.25;;;27.00;62.30;;;;;;5041855;28;20029;-81
2021/09/14 10:14:07;;;;;;;4.38;4.07;;;27.10;62.00;;;;;;5029613;28;20034;-82
2021/09/14 10:16:35;;;;;;;4.82;4.43;;;27.30;61.30;;;;;;5044622;28;20034;-81
2021/09/14 10:19:18;;;;;;;4.47;3.90;;;27.40;60.30;;;;;;5047206;28;20021;-83
2021/09/14 10:22:06;;;;;;;4.53;4.13;;;27.40;60.40;;;;;;5026066;28;20083;-82
2021/09/14 10:24:34;;;;;;;4.50;4.15;;;27.40;59.40;;;;;;5025659;28;20025;-82
2021/09/14 10:27:09;;;;;;;4.30;3.90;;;27.40;60.00;;;;;;5026913;28;20017;-82
2021/09/14 10:29:36;;;;;;;4.32;4.03;;;27.70;59.50;;;;;;5029378;28;20092;-83
2021/09/14 10:32:08;;;;;;;4.45;4.07;;;27.80;58.90;;;;;;5047376;28;20522;-82
2021/09/14 10:34:39;;;;;;;4.47;4.07;;;27.90;58.90;;;;;;5027093;28;20056;-82
2021/09/14 10:37:07;;;;;;;4.65;4.25;;;28.10;57.90;;;;;;5055582;28;20076;-84
2021/09/14 10:39:35;;;;;;;4.80;4.40;;;28.10;57.80;;;;;;5044377;28;20044;-82
2021/09/14 10:42:15;;;;;;;3.85;3.65;;;28.20;57.40;;;;;;5048757;28;20037;-81
2021/09/14 10:44:42;;;;;;;4.68;3.78;;;28.30;57.10;;;;;;5046223;28;20021;-83
2021/09/14 10:47:16;;;;;;;4.00;3.60;;;28.20;55.70;;;;;;5036699;28;20028;-83
2021/09/14 10:49:50;;;;;;;4.50;4.05;;;28.00;56.80;;;;;;5045435;28;20076;-82
2021/09/14 10:52:29;;;;;;;4.20;3.80;;;27.90;57.00;;;;;;5043740;28;20033;-83
2021/09/14 10:54:55;;;;;;;3.97;3.60;;;28.10;56.20;;;;;;5043003;28;20104;-83
2021/09/14 10:57:31;;;;;;;3.78;3.15;;;28.30;56.00;;;;;;5027430;28;20091;-82
2021/09/14 10:59:57;;;;;;;4.88;4.45;;;28.50;55.10;;;;;;5025044;28;20486;-82
2021/09/14 11:02:24;;;;;;;5.45;3.55;;;28.70;54.70;;;;;;5026649;28;20052;-82
2021/09/14 11:04:51;;;;;;;4.95;4.25;;;28.60;53.60;;;;;;4991959;28;20482;-78
2021/09/14 11:07:17;;;;;;;4.18;3.88;;;28.20;54.10;;;;;;5034781;28;20018;-80
2021/09/14 11:09:44;;;;;;;4.53;4.20;;;27.90;54.70;;;;;;5031932;28;20026;-80
2021/09/14 11:12:25;;;;;;;3.83;3.53;;;27.90;55.10;;;;;;5024041;28;20104;-79
2021/09/14 11:14:52;;;;;;;4.57;4.18;;;28.10;54.20;;;;;;5041405;28;20030;-79
2021/09/14 11:17:29;;;;;;;4.30;4.00;;;28.20;54.90;;;;;;5038263;28;20026;-78
2021/09/14 11:20:06;;;;;;;4.30;4.00;;;28.30;54.80;;;;;;5051501;28;20113;-77
2021/09/14 11:22:34;;;;;;;4.10;3.80;;;28.60;55.30;;;;;;5054574;28;20021;-82
2021/09/14 11:25:04;;;;;;;4.25;3.95;;;28.60;54.20;;;;;;5047203;28;20026;-81
2021/09/14 11:27:30;;;;;;;3.83;3.53;;;28.60;53.80;;;;;;5049106;28;20026;-83
2021/09/14 11:29:58;;;;;;;4.57;4.28;;;28.50;54.30;;;;;;5023984;28;20466;-82
2021/09/14 11:32:27;;;;;;;4.65;4.25;;;28.40;54.40;;;;;;5042665;28;20041;-83
2021/09/14 11:34:54;;;;;;;5.25;3.95;;;28.50;54.30;;;;;;5025673;28;20025;-82
2021/09/14 11:37:30;;;;;;;4.60;4.03;;;28.60;53.70;;;;;;5048412;28;20049;-81
2021/09/14 11:40:00;;;;;;;4.38;4.07;;;28.70;53.90;;;;;;5042671;28;20005;-80
2021/09/14 11:42:26;;;;;;;4.40;4.00;;;28.80;53.90;;;;;;5045643;28;20052;-80
2021/09/14 11:45:06;;;;;;;5.30;4.25;;;29.00;53.60;;;;;;5040914;28;20381;-79
2021/09/14 11:47:33;;;;;;;5.07;4.35;;;29.10;53.40;;;;;;5031159;28;20343;-80
2021/09/14 11:49:59;;;;;;;4.63;4.22;;;29.10;53.10;;;;;;5022780;28;20028;-82
2021/09/14 11:52:27;;;;;;;4.38;4.07;;;29.10;52.90;;;;;;5040817;28;20021;-81
2021/09/14 11:54:54;;;;;;;4.43;4.13;;;29.10;52.90;;;;;;5040592;28;20410;-82
2021/09/14 11:57:21;;;;;;;4.40;4.10;;;29.30;53.00;;;;;;5038931;28;20315;-79
2021/09/14 11:59:47;;;;;;;4.75;4.35;;;29.40;52.80;;;;;;5018758;28;20026;-81
2021/09/14 12:02:16;;;;;;;6.45;3.97;;;29.40;53.20;;;;;;5020518;28;20056;-81
2021/09/14 12:04:42;;;;;;;4.65;4.20;;;29.40;52.00;;;;;;5003220;28;20085;-80
2021/09/14 12:07:18;;;;;;;4.10;3.80;;;29.30;52.20;;;;;;5006596;28;20454;-81
2021/09/14 12:09:44;;;;;;;4.05;3.75;;;29.20;52.00;;;;;;5022388;28;20394;-82
2021/09/14 12:12:12;;;;;;;4.10;3.72;;;29.10;52.50;;;;;;5002267;28;20111;-83
2021/09/14 12:14:38;;;;;;;4.50;4.15;;;29.00;52.70;;;;;;5023220;28;20033;-82
2021/09/14 12:17:05;;;;;;;4.10;3.80;;;29.30;52.70;;;;;;5031555;28;20040;-82
2021/09/14 12:19:33;;;;;;;4.45;4.13;;;29.50;52.20;;;;;;5009055;28;20053;-80
2021/09/14 12:21:59;;;;;;;4.45;4.05;;;29.50;51.90;;;;;;5019917;28;20018;-80
2021/09/14 12:24:25;;;;;;;4.55;4.15;;;29.50;52.30;;;;;;5019622;28;20076;-80
2021/09/14 12:26:51;;;;;;;4.28;3.97;;;29.50;52.30;;;;;;5019263;28;20022;-81
2021/09/14 12:29:19;;;;;;;5.20;4.43;;;29.50;52.30;;;;;;5009566;28;20026;-81
2021/09/14 12:31:46;;;;;;;4.50;4.20;;;29.40;52.40;;;;;;5021764;28;20029;-79
2021/09/14 12:34:14;;;;;;;4.57;4.18;;;29.30;52.60;;;;;;5020444;28;20545;-81
2021/09/14 12:36:41;;;;;;;5.53;4.00;;;29.50;52.60;;;;;;5039030;28;20118;-81
2021/09/14 12:39:09;;;;;;;4.13;3.83;;;29.40;52.10;;;;;;5030279;28;20022;-80
2021/09/14 12:41:34;;;;;;;5.35;4.20;;;29.40;52.40;;;;;;5018907;28;20084;-81
2021/09/14 12:44:00;;;;;;;4.10;3.80;;;29.50;52.10;;;;;;5018825;28;20026;-80
2021/09/14 12:46:26;;;;;;;3.85;3.55;;;29.60;52.20;;;;;;5031651;28;20018;-81
2021/09/14 12:48:51;;;;;;;4.43;4.10;;;29.70;52.30;;;;;;5016955;28;20112;-81
2021/09/14 12:51:17;;;;;;;4.07;3.75;;;30.00;52.40;;;;;;5019247;28;20038;-81
2021/09/14 12:53:43;;;;;;;4.13;3.83;;;30.20;51.10;;;;;;5001232;28;20026;-79
2021/09/14 12:56:10;;;;;;;4.68;4.38;;;30.50;50.90;;;;;;5018646;28;20030;-82
2021/09/14 12:58:36;;;;;;;4.60;4.20;;;30.80;50.50;;;;;;5019409;28;20042;-80
2021/09/14 13:01:03;;;;;;;4.80;4.43;;;30.90;49.80;;;;;;5032628;28;20022;-81
2021/09/14 13:03:29;;;;;;;4.30;4.00;;;31.00;50.00;;;;;;5039321;28;20014;-81
2021/09/14 13:05:54;;;;;;;5.03;4.63;;;31.10;50.00;;;;;;5037856;28;20078;-81
2021/09/14 13:08:20;;;;;;;5.00;4.60;;;31.10;50.00;;;;;;5035037;28;20018;-82
2021/09/14 13:10:47;;;;;;;4.78;4.38;;;30.90;49.50;;;;;;5025604;28;20057;-81
2021/09/14 13:16:12;;;;;;;4.90;4.45;;;31.50;49.60;;;;;;5031610;28;20029;-81
2021/09/14 13:18:46;;;;;;;4.63;4.32;;;32.10;47.90;;;;;;5015110;28;20569;-81
2021/09/14 13:21:14;;;;;;;4.40;4.10;;;31.80;47.70;;;;;;5030045;28;20026;-81
2021/09/14 13:23:42;;;;;;;4.28;3.97;;;31.00;48.70;;;;;;5020571;28;20073;-82
2021/09/14 13:26:08;;;;;;;4.70;4.35;;;30.40;50.20;;;;;;5008158;28;20060;-80
2021/09/14 13:28:34;;;;;;;4.25;3.95;;;29.70;51.40;;;;;;5031803;28;20094;-77
2021/09/14 13:31:00;;;;;;;5.05;4.65;;;29.20;52.30;;;;;;5040101;28;20040;-78
2021/09/14 13:33:26;;;;;;;4.28;3.97;;;28.80;53.20;;;;;;5038445;28;20021;-77
2021/09/14 13:35:52;;;;;;;5.03;4.63;;;28.30;54.20;;;;;;5053945;28;20049;-77
2021/09/14 13:38:18;;;;;;;4.60;4.20;;;28.00;55.00;;;;;;5031430;28;20031;-76
2021/09/14 13:40:47;;;;;;;5.63;4.60;;;27.70;55.60;;;;;;5039198;28;20048;-78
2021/09/14 13:43:16;;;;;;;5.07;4.65;;;27.50;55.80;;;;;;5024636;28;20025;-81
2021/09/14 13:48:26;;;;;;;4.75;4.45;;;27.10;57.40;;;;;;5039595;28;20032;-81
2021/09/14 13:50:52;;;;;;;4.75;4.35;;;26.90;57.70;;;;;;5015045;28;20013;-81
2021/09/14 13:53:18;;;;;;;4.45;4.13;;;26.70;58.40;;;;;;5015016;28;20423;-82
2021/09/14 13:55:45;;;;;;;5.75;4.50;;;26.50;58.70;;;;;;5040096;28;20038;-81
2021/09/14 13:58:11;;;;;;;4.43;4.03;;;26.50;59.20;;;;;;5038706;28;20045;-79
2021/09/14 14:00:37;;;;;;;5.47;4.97;;;26.90;58.60;;;;;;5036775;28;20430;-81
2021/09/14 14:03:04;;;;;;;8.18;3.95;;;27.20;57.90;;;;;;5003798;28;20364;-80